sensor_id;sensor_type;location;lat;lon;timestamp;pressure;altitude;pressure_sealevel;temperature;humidity
77250;BME280;66287;42.658;27.568;2023-02-28T00:02:19;100962.38;;;13.57;59.76
77250;BME280;66287;42.658;27.568;2023-02-28T00:04:44;100967.19;;;13.55;59.89
77250;BME280;66287;42.658;27.568;2023-02-28T00:07:10;100983.09;;;13.51;59.87
77250;BME280;66287;42.658;27.568;2023-02-28T00:09:35;100988.94;;;13.48;59.93
77250;BME280;66287;42.658;27.568;2023-02-28T00:12:00;100985.56;;;13.46;59.24
77250;BME280;66287;42.658;27.568;2023-02-28T00:14:35;100974.25;;;13.42;59.55
77250;BME280;66287;42.658;27.568;2023-02-28T00:17:00;100965.22;;;13.42;59.45
77250;BME280;66287;42.658;27.568;2023-02-28T00:19:26;100975.47;;;13.40;59.75
77250;BME280;66287;42.658;27.568;2023-02-28T00:21:51;100977.59;;;13.38;59.37
77250;BME280;66287;42.658;27.568;2023-02-28T00:24:16;100991.59;;;13.35;59.38
77250;BME280;66287;42.658;27.568;2023-02-28T00:26:42;101008.97;;;13.34;59.27
77250;BME280;66287;42.658;27.568;2023-02-28T00:29:07;101012.31;;;13.29;59.73
77250;BME280;66287;42.658;27.568;2023-02-28T00:31:33;101018.34;;;13.25;59.56
77250;BME280;66287;42.658;27.568;2023-02-28T00:33:58;101012.25;;;13.23;59.57
77250;BME280;66287;42.658;27.568;2023-02-28T00:36:23;101020.63;;;13.21;59.41
77250;BME280;66287;42.658;27.568;2023-02-28T00:38:49;101027.09;;;13.20;59.60
77250;BME280;66287;42.658;27.568;2023-02-28T00:41:14;101022.09;;;13.17;59.56
77250;BME280;66287;42.658;27.568;2023-02-28T00:43:40;101005.09;;;13.15;59.30
77250;BME280;66287;42.658;27.568;2023-02-28T00:46:06;101002.75;;;13.12;59.48
77250;BME280;66287;42.658;27.568;2023-02-28T00:48:31;100999.59;;;13.08;59.46
77250;BME280;66287;42.658;27.568;2023-02-28T00:50:57;101015.47;;;13.05;59.42
77250;BME280;66287;42.658;27.568;2023-02-28T00:53:24;101034.06;;;13.01;59.29
77250;BME280;66287;42.658;27.568;2023-02-28T00:55:49;101053.53;;;12.98;59.45
77250;BME280;66287;42.658;27.568;2023-02-28T00:58:15;101055.59;;;12.96;59.82
77250;BME280;66287;42.658;27.568;2023-02-28T01:00:40;101051.19;;;12.95;59.92
77250;BME280;66287;42.658;27.568;2023-02-28T01:03:06;101032.53;;;12.92;59.44
77250;BME280;66287;42.658;27.568;2023-02-28T01:05:34;101018.28;;;12.90;59.75
77250;BME280;66287;42.658;27.568;2023-02-28T01:07:59;101013.25;;;12.87;59.72
77250;BME280;66287;42.658;27.568;2023-02-28T01:10:25;101020.50;;;12.80;59.74
77250;BME280;66287;42.658;27.568;2023-02-28T01:12:50;101029.69;;;12.79;60.05
77250;BME280;66287;42.658;27.568;2023-02-28T01:15:16;101039.69;;;12.72;59.86
77250;BME280;66287;42.658;27.568;2023-02-28T01:17:41;101037.94;;;12.64;60.12
77250;BME280;66287;42.658;27.568;2023-02-28T01:20:07;101037.31;;;12.62;60.26
77250;BME280;66287;42.658;27.568;2023-02-28T01:22:34;101056.16;;;12.64;60.13
77250;BME280;66287;42.658;27.568;2023-02-28T01:24:59;101043.97;;;12.60;60.23
77250;BME280;66287;42.658;27.568;2023-02-28T01:27:25;101038.34;;;12.61;60.26
77250;BME280;66287;42.658;27.568;2023-02-28T01:29:51;101023.91;;;12.61;60.36
77250;BME280;66287;42.658;27.568;2023-02-28T01:32:17;101021.59;;;12.58;60.57
77250;BME280;66287;42.658;27.568;2023-02-28T01:34:42;101039.53;;;12.52;60.23
77250;BME280;66287;42.658;27.568;2023-02-28T01:37:07;101048.06;;;12.49;60.66
77250;BME280;66287;42.658;27.568;2023-02-28T01:39:33;101041.06;;;12.40;60.77
77250;BME280;66287;42.658;27.568;2023-02-28T01:41:58;101032.88;;;12.33;60.88
77250;BME280;66287;42.658;27.568;2023-02-28T01:47:08;101056.28;;;12.34;61.10
77250;BME280;66287;42.658;27.568;2023-02-28T01:49:33;101069.03;;;12.34;61.13
77250;BME280;66287;42.658;27.568;2023-02-28T01:51:59;101068.19;;;12.33;60.94
77250;BME280;66287;42.658;27.568;2023-02-28T01:54:25;101074.88;;;12.31;61.20
77250;BME280;66287;42.658;27.568;2023-02-28T01:56:53;101064.94;;;12.23;60.95
77250;BME280;66287;42.658;27.568;2023-02-28T01:59:22;101070.97;;;12.19;61.47
77250;BME280;66287;42.658;27.568;2023-02-28T02:01:51;101067.72;;;12.08;61.63
77250;BME280;66287;42.658;27.568;2023-02-28T02:04:18;101062.09;;;12.10;61.86
77250;BME280;66287;42.658;27.568;2023-02-28T02:06:45;101061.44;;;12.08;61.69
77250;BME280;66287;42.658;27.568;2023-02-28T02:09:12;101060.97;;;12.04;61.68
77250;BME280;66287;42.658;27.568;2023-02-28T02:11:39;101064.91;;;12.02;61.71
77250;BME280;66287;42.658;27.568;2023-02-28T02:16:41;101072.81;;;11.97;62.13
77250;BME280;66287;42.658;27.568;2023-02-28T02:37:39;101073.84;;;11.66;62.68
77250;BME280;66287;42.658;27.568;2023-02-28T02:40:19;101069.44;;;11.65;62.87
77250;BME280;66287;42.658;27.568;2023-02-28T02:42:52;101063.53;;;11.62;63.10
77250;BME280;66287;42.658;27.568;2023-02-28T02:47:50;101064.97;;;11.58;63.13
77250;BME280;66287;42.658;27.568;2023-02-28T02:50:21;101078.25;;;11.53;63.17
77250;BME280;66287;42.658;27.568;2023-02-28T02:52:49;101089.84;;;11.47;63.03
77250;BME280;66287;42.658;27.568;2023-02-28T02:55:17;101088.91;;;11.39;63.18
77250;BME280;66287;42.658;27.568;2023-02-28T02:57:52;101079.66;;;11.34;63.78
77250;BME280;66287;42.658;27.568;2023-02-28T03:00:21;101087.31;;;11.30;63.84
77250;BME280;66287;42.658;27.568;2023-02-28T03:02:48;101080.56;;;11.26;63.69
77250;BME280;66287;42.658;27.568;2023-02-28T03:05:23;101080.09;;;11.23;63.98
77250;BME280;66287;42.658;27.568;2023-02-28T03:07:50;101086.09;;;11.18;63.74
77250;BME280;66287;42.658;27.568;2023-02-28T03:18:32;101095.53;;;11.08;64.43
77250;BME280;66287;42.658;27.568;2023-02-28T03:26:24;101100.38;;;10.97;64.64
77250;BME280;66287;42.658;27.568;2023-02-28T03:31:39;101103.28;;;10.96;64.80
77250;BME280;66287;42.658;27.568;2023-02-28T03:34:24;101098.69;;;10.96;64.43
77250;BME280;66287;42.658;27.568;2023-02-28T03:36:53;101099.59;;;10.89;64.65
77250;BME280;66287;42.658;27.568;2023-02-28T03:39:21;101100.09;;;10.92;64.64
77250;BME280;66287;42.658;27.568;2023-02-28T03:41:52;101104.34;;;10.87;64.68
77250;BME280;66287;42.658;27.568;2023-02-28T03:44:29;101104.06;;;10.82;64.72
77250;BME280;66287;42.658;27.568;2023-02-28T03:47:00;101109.25;;;10.68;65.45
77250;BME280;66287;42.658;27.568;2023-02-28T03:49:31;101103.66;;;10.70;65.21
77250;BME280;66287;42.658;27.568;2023-02-28T03:51:58;101097.09;;;10.64;65.20
77250;BME280;66287;42.658;27.568;2023-02-28T03:54:27;101099.69;;;10.58;65.38
77250;BME280;66287;42.658;27.568;2023-02-28T03:56:57;101113.13;;;10.51;65.29
77250;BME280;66287;42.658;27.568;2023-02-28T03:59:32;101098.06;;;10.49;65.22
77250;BME280;66287;42.658;27.568;2023-02-28T04:01:59;101097.56;;;10.45;65.40
77250;BME280;66287;42.658;27.568;2023-02-28T04:04:25;101098.22;;;10.47;65.62
77250;BME280;66287;42.658;27.568;2023-02-28T04:06:51;101100.09;;;10.47;65.37
77250;BME280;66287;42.658;27.568;2023-02-28T04:09:17;101098.06;;;10.49;65.74
77250;BME280;66287;42.658;27.568;2023-02-28T04:11:46;101107.03;;;10.49;64.88
77250;BME280;66287;42.658;27.568;2023-02-28T04:14:14;101101.97;;;10.46;65.00
77250;BME280;66287;42.658;27.568;2023-02-28T04:16:40;101114.00;;;10.44;65.07
77250;BME280;66287;42.658;27.568;2023-02-28T04:19:06;101120.75;;;10.48;65.30
77250;BME280;66287;42.658;27.568;2023-02-28T04:21:34;101119.25;;;10.45;65.81
77250;BME280;66287;42.658;27.568;2023-02-28T04:24:00;101125.00;;;10.42;65.41
77250;BME280;66287;42.658;27.568;2023-02-28T04:26:31;101129.78;;;10.40;65.46
77250;BME280;66287;42.658;27.568;2023-02-28T04:28:57;101130.63;;;10.41;65.69
77250;BME280;66287;42.658;27.568;2023-02-28T04:31:23;101140.16;;;10.37;65.78
77250;BME280;66287;42.658;27.568;2023-02-28T04:33:48;101136.28;;;10.31;65.78
77250;BME280;66287;42.658;27.568;2023-02-28T04:36:14;101129.53;;;10.27;66.09
77250;BME280;66287;42.658;27.568;2023-02-28T04:38:40;101130.69;;;10.32;66.48
77250;BME280;66287;42.658;27.568;2023-02-28T04:41:05;101124.41;;;10.32;65.65
77250;BME280;66287;42.658;27.568;2023-02-28T04:43:31;101125.94;;;10.34;65.68
77250;BME280;66287;42.658;27.568;2023-02-28T04:45:57;101124.44;;;10.24;65.96
77250;BME280;66287;42.658;27.568;2023-02-28T04:48:27;101119.88;;;10.24;66.09
77250;BME280;66287;42.658;27.568;2023-02-28T04:50:53;101122.28;;;10.19;66.15
77250;BME280;66287;42.658;27.568;2023-02-28T04:53:18;101114.16;;;10.19;66.07
77250;BME280;66287;42.658;27.568;2023-02-28T04:55:44;101113.47;;;10.17;66.76
77250;BME280;66287;42.658;27.568;2023-02-28T04:58:10;101117.03;;;10.18;66.23
77250;BME280;66287;42.658;27.568;2023-02-28T05:00:35;101127.53;;;10.13;66.45
77250;BME280;66287;42.658;27.568;2023-02-28T05:03:01;101123.13;;;10.20;66.69
77250;BME280;66287;42.658;27.568;2023-02-28T05:05:26;101129.59;;;10.19;66.13
77250;BME280;66287;42.658;27.568;2023-02-28T05:07:51;101148.00;;;10.23;66.14
77250;BME280;66287;42.658;27.568;2023-02-28T05:10:18;101139.38;;;10.20;66.25
77250;BME280;66287;42.658;27.568;2023-02-28T05:12:44;101137.16;;;10.23;66.11
77250;BME280;66287;42.658;27.568;2023-02-28T05:15:12;101137.66;;;10.27;66.19
77250;BME280;66287;42.658;27.568;2023-02-28T05:17:37;101144.25;;;10.24;65.88
77250;BME280;66287;42.658;27.568;2023-02-28T05:20:03;101158.34;;;10.12;66.46
77250;BME280;66287;42.658;27.568;2023-02-28T05:22:30;101148.38;;;10.12;66.94
77250;BME280;66287;42.658;27.568;2023-02-28T05:24:55;101154.97;;;10.10;66.73
77250;BME280;66287;42.658;27.568;2023-02-28T05:27:20;101162.09;;;10.11;66.64
77250;BME280;66287;42.658;27.568;2023-02-28T05:29:46;101167.66;;;10.09;66.96
77250;BME280;66287;42.658;27.568;2023-02-28T05:32:11;101172.09;;;10.02;67.13
77250;BME280;66287;42.658;27.568;2023-02-28T05:34:37;101181.22;;;10.01;67.34
77250;BME280;66287;42.658;27.568;2023-02-28T05:37:03;101185.16;;;9.98;67.24
77250;BME280;66287;42.658;27.568;2023-02-28T05:39:29;101191.44;;;9.99;67.38
77250;BME280;66287;42.658;27.568;2023-02-28T05:41:54;101196.47;;;10.02;67.17
77250;BME280;66287;42.658;27.568;2023-02-28T05:44:19;101187.81;;;10.07;67.53
77250;BME280;66287;42.658;27.568;2023-02-28T05:46:45;101198.81;;;10.13;67.79
77250;BME280;66287;42.658;27.568;2023-02-28T05:49:10;101197.31;;;10.19;67.58
77250;BME280;66287;42.658;27.568;2023-02-28T05:51:35;101203.00;;;10.24;66.98
77250;BME280;66287;42.658;27.568;2023-02-28T05:54:04;101200.97;;;10.26;67.05
77250;BME280;66287;42.658;27.568;2023-02-28T05:56:30;101203.00;;;10.32;67.01
77250;BME280;66287;42.658;27.568;2023-02-28T05:58:55;101200.94;;;10.34;66.85
77250;BME280;66287;42.658;27.568;2023-02-28T06:03:47;101210.69;;;10.51;66.87
77250;BME280;66287;42.658;27.568;2023-02-28T06:06:12;101215.03;;;10.60;66.74
77250;BME280;66287;42.658;27.568;2023-02-28T06:08:37;101224.00;;;10.61;66.35
77250;BME280;66287;42.658;27.568;2023-02-28T06:11:03;101217.56;;;10.62;66.08
77250;BME280;66287;42.658;27.568;2023-02-28T06:13:28;101222.97;;;10.62;66.45
77250;BME280;66287;42.658;27.568;2023-02-28T06:15:54;101227.19;;;10.64;66.69
77250;BME280;66287;42.658;27.568;2023-02-28T06:18:19;101218.03;;;10.65;66.21
77250;BME280;66287;42.658;27.568;2023-02-28T06:20:44;101219.38;;;10.69;66.20
77250;BME280;66287;42.658;27.568;2023-02-28T06:23:18;101222.75;;;10.72;66.15
77250;BME280;66287;42.658;27.568;2023-02-28T06:25:46;101221.75;;;10.73;66.31
77250;BME280;66287;42.658;27.568;2023-02-28T06:28:11;101213.44;;;10.74;65.90
77250;BME280;66287;42.658;27.568;2023-02-28T06:30:37;101204.09;;;10.77;66.07
77250;BME280;66287;42.658;27.568;2023-02-28T06:33:02;101214.38;;;10.81;66.26
77250;BME280;66287;42.658;27.568;2023-02-28T06:35:28;101217.41;;;10.86;65.99
77250;BME280;66287;42.658;27.568;2023-02-28T06:37:54;101218.75;;;10.90;66.02
77250;BME280;66287;42.658;27.568;2023-02-28T06:40:20;101216.34;;;10.95;65.80
77250;BME280;66287;42.658;27.568;2023-02-28T06:42:45;101219.31;;;11.00;65.62
77250;BME280;66287;42.658;27.568;2023-02-28T06:45:11;101227.59;;;11.07;65.38
77250;BME280;66287;42.658;27.568;2023-02-28T06:47:37;101213.84;;;11.09;65.18
77250;BME280;66287;42.658;27.568;2023-02-28T06:50:03;101221.81;;;11.10;65.16
77250;BME280;66287;42.658;27.568;2023-02-28T06:52:29;101210.91;;;11.18;65.18
77250;BME280;66287;42.658;27.568;2023-02-28T06:54:55;101215.72;;;11.31;64.79
77250;BME280;66287;42.658;27.568;2023-02-28T06:57:31;101213.56;;;11.41;64.83
77250;BME280;66287;42.658;27.568;2023-02-28T06:59:58;101222.44;;;11.58;64.66
77250;BME280;66287;42.658;27.568;2023-02-28T07:02:24;101215.50;;;11.70;64.67
77250;BME280;66287;42.658;27.568;2023-02-28T07:04:49;101216.94;;;11.81;64.07
77250;BME280;66287;42.658;27.568;2023-02-28T07:07:14;101208.72;;;11.89;64.21
77250;BME280;66287;42.658;27.568;2023-02-28T07:09:40;101208.63;;;11.97;63.79
77250;BME280;66287;42.658;27.568;2023-02-28T07:12:05;101213.78;;;12.06;63.58
77250;BME280;66287;42.658;27.568;2023-02-28T07:14:31;101216.22;;;12.16;63.65
77250;BME280;66287;42.658;27.568;2023-02-28T07:16:56;101216.38;;;12.29;63.23
77250;BME280;66287;42.658;27.568;2023-02-28T07:19:22;101214.66;;;12.43;63.26
77250;BME280;66287;42.658;27.568;2023-02-28T07:21:47;101209.00;;;12.59;63.30
77250;BME280;66287;42.658;27.568;2023-02-28T07:24:13;101206.19;;;12.67;63.06
77250;BME280;66287;42.658;27.568;2023-02-28T07:26:40;101206.72;;;12.77;63.06
77250;BME280;66287;42.658;27.568;2023-02-28T07:29:06;101207.91;;;12.90;62.73
77250;BME280;66287;42.658;27.568;2023-02-28T07:31:31;101203.75;;;12.94;62.97
77250;BME280;66287;42.658;27.568;2023-02-28T07:33:57;101220.09;;;12.94;62.35
77250;BME280;66287;42.658;27.568;2023-02-28T07:36:22;101216.72;;;12.92;62.67
77250;BME280;66287;42.658;27.568;2023-02-28T07:38:48;101223.19;;;12.91;62.72
77250;BME280;66287;42.658;27.568;2023-02-28T07:41:15;101225.91;;;12.91;62.94
77250;BME280;66287;42.658;27.568;2023-02-28T07:43:40;101222.81;;;12.94;62.67
77250;BME280;66287;42.658;27.568;2023-02-28T07:46:10;101226.19;;;12.96;62.78
77250;BME280;66287;42.658;27.568;2023-02-28T07:48:36;101223.47;;;12.96;62.65
77250;BME280;66287;42.658;27.568;2023-02-28T07:51:02;101222.16;;;12.92;62.74
77250;BME280;66287;42.658;27.568;2023-02-28T07:53:28;101233.16;;;12.84;62.33
77250;BME280;66287;42.658;27.568;2023-02-28T07:56:00;101238.59;;;12.84;62.86
77250;BME280;66287;42.658;27.568;2023-02-28T07:58:26;101251.16;;;12.85;62.83
77250;BME280;66287;42.658;27.568;2023-02-28T08:00:51;101240.34;;;12.91;62.73
77250;BME280;66287;42.658;27.568;2023-02-28T08:03:17;101230.59;;;12.97;62.54
77250;BME280;66287;42.658;27.568;2023-02-28T08:05:43;101239.44;;;13.05;62.53
77250;BME280;66287;42.658;27.568;2023-02-28T08:08:08;101251.00;;;13.07;62.63
77250;BME280;66287;42.658;27.568;2023-02-28T08:10:34;101244.88;;;13.05;62.27
77250;BME280;66287;42.658;27.568;2023-02-28T08:12:59;101241.97;;;13.07;62.71
77250;BME280;66287;42.658;27.568;2023-02-28T08:15:25;101243.66;;;13.08;62.58
77250;BME280;66287;42.658;27.568;2023-02-28T08:17:50;101242.16;;;13.05;62.08
77250;BME280;66287;42.658;27.568;2023-02-28T08:20:16;101255.31;;;13.02;62.81
77250;BME280;66287;42.658;27.568;2023-02-28T08:22:41;101256.94;;;12.96;62.22
77250;BME280;66287;42.658;27.568;2023-02-28T08:25:07;101264.00;;;12.91;62.43
77250;BME280;66287;42.658;27.568;2023-02-28T08:27:32;101261.75;;;12.80;61.52
77250;BME280;66287;42.658;27.568;2023-02-28T08:29:57;101253.72;;;12.71;62.27
77250;BME280;66287;42.658;27.568;2023-02-28T08:32:23;101253.72;;;12.71;63.08
77250;BME280;66287;42.658;27.568;2023-02-28T08:34:48;101247.91;;;12.74;63.40
77250;BME280;66287;42.658;27.568;2023-02-28T08:37:14;101245.19;;;12.74;62.38
77250;BME280;66287;42.658;27.568;2023-02-28T08:39:39;101240.34;;;12.91;63.09
77250;BME280;66287;42.658;27.568;2023-02-28T08:42:05;101245.16;;;13.10;62.60
77250;BME280;66287;42.658;27.568;2023-02-28T08:44:30;101245.50;;;13.22;62.10
77250;BME280;66287;42.658;27.568;2023-02-28T08:46:55;101243.25;;;13.26;62.05
77250;BME280;66287;42.658;27.568;2023-02-28T08:49:21;101251.13;;;13.21;61.70
77250;BME280;66287;42.658;27.568;2023-02-28T08:51:46;101248.63;;;13.19;61.91
77250;BME280;66287;42.658;27.568;2023-02-28T08:54:12;101259.50;;;13.19;61.45
77250;BME280;66287;42.658;27.568;2023-02-28T08:56:38;101256.34;;;13.16;61.94
77250;BME280;66287;42.658;27.568;2023-02-28T08:59:03;101254.56;;;13.08;62.29
77250;BME280;66287;42.658;27.568;2023-02-28T09:01:29;101263.94;;;13.05;62.29
77250;BME280;66287;42.658;27.568;2023-02-28T09:03:55;101268.72;;;13.03;62.47
77250;BME280;66287;42.658;27.568;2023-02-28T09:06:21;101262.06;;;13.06;62.14
77250;BME280;66287;42.658;27.568;2023-02-28T09:08:47;101261.03;;;13.07;62.18
77250;BME280;66287;42.658;27.568;2023-02-28T09:11:12;101264.78;;;13.06;61.82
77250;BME280;66287;42.658;27.568;2023-02-28T09:13:38;101271.06;;;13.06;61.77
77250;BME280;66287;42.658;27.568;2023-02-28T09:16:05;101260.84;;;13.08;62.35
77250;BME280;66287;42.658;27.568;2023-02-28T09:18:31;101257.53;;;13.13;62.44
77250;BME280;66287;42.658;27.568;2023-02-28T09:20:56;101265.34;;;13.16;62.38
77250;BME280;66287;42.658;27.568;2023-02-28T09:23:23;101259.06;;;13.16;61.91
77250;BME280;66287;42.658;27.568;2023-02-28T09:25:50;101264.03;;;13.12;61.40
77250;BME280;66287;42.658;27.568;2023-02-28T09:28:16;101254.16;;;13.11;61.53
77250;BME280;66287;42.658;27.568;2023-02-28T09:30:42;101269.84;;;13.09;62.02
77250;BME280;66287;42.658;27.568;2023-02-28T09:33:08;101258.50;;;13.05;61.33
77250;BME280;66287;42.658;27.568;2023-02-28T09:35:34;101253.72;;;13.07;62.05
77250;BME280;66287;42.658;27.568;2023-02-28T09:37:59;101251.63;;;13.09;61.48
77250;BME280;66287;42.658;27.568;2023-02-28T09:40:28;101264.22;;;13.10;61.15
77250;BME280;66287;42.658;27.568;2023-02-28T09:42:54;101261.94;;;13.14;61.04
77250;BME280;66287;42.658;27.568;2023-02-28T09:47:49;101252.06;;;13.28;61.88
77250;BME280;66287;42.658;27.568;2023-02-28T09:52:51;101246.72;;;13.41;61.57
77250;BME280;66287;42.658;27.568;2023-02-28T09:58:01;101255.50;;;13.58;61.26
77250;BME280;66287;42.658;27.568;2023-02-28T10:00:30;101254.28;;;13.67;60.41
77250;BME280;66287;42.658;27.568;2023-02-28T10:05:52;101251.47;;;13.82;60.01
77250;BME280;66287;42.658;27.568;2023-02-28T10:08:18;101248.41;;;13.91;59.55
77250;BME280;66287;42.658;27.568;2023-02-28T10:13:58;101244.31;;;14.08;59.47
77250;BME280;66287;42.658;27.568;2023-02-28T10:16:37;101242.47;;;14.16;59.24
77250;BME280;66287;42.658;27.568;2023-02-28T10:26:43;101226.13;;;14.16;58.87
77250;BME280;66287;42.658;27.568;2023-02-28T10:29:10;101223.16;;;14.10;59.86
77250;BME280;66287;42.658;27.568;2023-02-28T10:31:36;101223.16;;;14.10;60.56
77250;BME280;66287;42.658;27.568;2023-02-28T10:34:01;101226.31;;;14.14;60.40
77250;BME280;66287;42.658;27.568;2023-02-28T10:36:28;101220.03;;;14.20;60.90
77250;BME280;66287;42.658;27.568;2023-02-28T10:38:53;101221.94;;;14.20;60.11
77250;BME280;66287;42.658;27.568;2023-02-28T10:43:50;101223.41;;;14.22;60.22
77250;BME280;66287;42.658;27.568;2023-02-28T10:46:16;101206.66;;;14.25;60.54
77250;BME280;66287;42.658;27.568;2023-02-28T10:49:06;101212.75;;;14.27;59.60
77250;BME280;66287;42.658;27.568;2023-02-28T10:51:35;101199.91;;;14.21;59.50
77250;BME280;66287;42.658;27.568;2023-02-28T10:54:01;101188.59;;;14.18;59.96
77250;BME280;66287;42.658;27.568;2023-02-28T10:56:28;101186.94;;;14.23;60.36
77250;BME280;66287;42.658;27.568;2023-02-28T11:03:59;101181.72;;;14.28;60.00
77250;BME280;66287;42.658;27.568;2023-02-28T11:06:32;101185.44;;;14.21;58.41
77250;BME280;66287;42.658;27.568;2023-02-28T11:09:03;101180.19;;;14.19;60.23
77250;BME280;66287;42.658;27.568;2023-02-28T11:11:29;101173.09;;;14.18;60.14
77250;BME280;66287;42.658;27.568;2023-02-28T11:14:03;101177.91;;;14.16;60.22
77250;BME280;66287;42.658;27.568;2023-02-28T11:16:33;101170.97;;;14.13;60.26
77250;BME280;66287;42.658;27.568;2023-02-28T11:19:00;101167.84;;;14.17;60.48
77250;BME280;66287;42.658;27.568;2023-02-28T11:21:32;101174.97;;;14.18;60.40
77250;BME280;66287;42.658;27.568;2023-02-28T11:26:44;101172.44;;;14.23;60.11
77250;BME280;66287;42.658;27.568;2023-02-28T11:29:11;101181.28;;;14.25;59.85
77250;BME280;66287;42.658;27.568;2023-02-28T11:31:38;101175.41;;;14.28;60.61
77250;BME280;66287;42.658;27.568;2023-02-28T11:34:20;101171.25;;;14.32;59.63
77250;BME280;66287;42.658;27.568;2023-02-28T11:36:47;101166.63;;;14.32;59.27
77250;BME280;66287;42.658;27.568;2023-02-28T11:39:13;101164.75;;;14.33;59.56
77250;BME280;66287;42.658;27.568;2023-02-28T11:44:29;101152.41;;;14.37;60.04
77250;BME280;66287;42.658;27.568;2023-02-28T11:47:09;101149.22;;;14.33;59.44
77250;BME280;66287;42.658;27.568;2023-02-28T11:57:25;101156.28;;;14.14;59.86
77250;BME280;66287;42.658;27.568;2023-02-28T12:05:29;101190.78;;;13.94;58.38
77250;BME280;66287;42.658;27.568;2023-02-28T12:10:26;101195.72;;;13.84;59.67
77250;BME280;66287;42.658;27.568;2023-02-28T12:15:31;101183.16;;;13.83;60.21
77250;BME280;66287;42.658;27.568;2023-02-28T12:18:17;101184.84;;;13.84;60.25
77250;BME280;66287;42.658;27.568;2023-02-28T12:20:52;101194.44;;;13.80;60.48
77250;BME280;66287;42.658;27.568;2023-02-28T12:28:20;101191.09;;;13.78;60.65
77250;BME280;66287;42.658;27.568;2023-02-28T12:31:24;101189.16;;;13.72;59.54
77250;BME280;66287;42.658;27.568;2023-02-28T12:33:45;101184.75;;;13.71;59.95
77250;BME280;66287;42.658;27.568;2023-02-28T12:36:13;101192.94;;;13.71;60.24
77250;BME280;66287;42.658;27.568;2023-02-28T12:38:44;101186.19;;;13.67;59.84
77250;BME280;66287;42.658;27.568;2023-02-28T12:41:12;101188.91;;;13.67;60.41
77250;BME280;66287;42.658;27.568;2023-02-28T12:43:44;101181.13;;;13.64;59.29
77250;BME280;66287;42.658;27.568;2023-02-28T12:46:12;101187.81;;;13.61;59.26
77250;BME280;66287;42.658;27.568;2023-02-28T12:51:05;101194.09;;;13.62;59.87
77250;BME280;66287;42.658;27.568;2023-02-28T12:58:42;101179.44;;;13.56;59.18
77250;BME280;66287;42.658;27.568;2023-02-28T13:01:23;101176.91;;;13.55;59.09
77250;BME280;66287;42.658;27.568;2023-02-28T13:09:11;101168.09;;;13.53;59.17
77250;BME280;66287;42.658;27.568;2023-02-28T13:11:43;101167.44;;;13.51;59.41
77250;BME280;66287;42.658;27.568;2023-02-28T13:19:32;101161.09;;;13.43;58.76
77250;BME280;66287;42.658;27.568;2023-02-28T13:21:58;101159.84;;;13.46;59.24
77250;BME280;66287;42.658;27.568;2023-02-28T13:24:42;101161.09;;;13.43;59.17
77250;BME280;66287;42.658;27.568;2023-02-28T13:37:35;101155.09;;;13.27;58.74
77250;BME280;66287;42.658;27.568;2023-02-28T13:42:48;101153.34;;;13.19;58.66
77250;BME280;66287;42.658;27.568;2023-02-28T13:45:25;101149.34;;;13.15;58.42
77250;BME280;66287;42.658;27.568;2023-02-28T13:47:52;101150.75;;;13.11;58.40
77250;BME280;66287;42.658;27.568;2023-02-28T13:50:32;101159.31;;;13.08;58.46
77250;BME280;66287;42.658;27.568;2023-02-28T14:11:26;101145.84;;;12.79;59.03
77250;BME280;66287;42.658;27.568;2023-02-28T14:13:52;101147.06;;;12.76;59.03
77250;BME280;66287;42.658;27.568;2023-02-28T14:16:22;101142.88;;;12.73;58.99
77250;BME280;66287;42.658;27.568;2023-02-28T14:21:23;101142.78;;;12.67;59.03
77250;BME280;66287;42.658;27.568;2023-02-28T14:24:01;101149.91;;;12.68;59.17
77250;BME280;66287;42.658;27.568;2023-02-28T14:32:11;101160.47;;;12.56;59.39
77250;BME280;66287;42.658;27.568;2023-02-28T14:34:45;101158.31;;;12.52;59.24
77250;BME280;66287;42.658;27.568;2023-02-28T14:37:19;101165.03;;;12.34;59.62
77250;BME280;66287;42.658;27.568;2023-02-28T14:39:45;101177.72;;;12.13;61.08
77250;BME280;66287;42.658;27.568;2023-02-28T14:44:55;101172.75;;;12.01;61.88
77250;BME280;66287;42.658;27.568;2023-02-28T14:47:26;101170.59;;;11.97;62.37
77250;BME280;66287;42.658;27.568;2023-02-28T14:49:52;101173.59;;;11.87;62.48
77250;BME280;66287;42.658;27.568;2023-02-28T14:52:25;101169.19;;;11.86;62.94
77250;BME280;66287;42.658;27.568;2023-02-28T14:54:53;101172.94;;;11.85;62.87
77250;BME280;66287;42.658;27.568;2023-02-28T14:59:56;101188.88;;;11.88;63.35
77250;BME280;66287;42.658;27.568;2023-02-28T15:02:22;101184.81;;;11.84;63.53
77250;BME280;66287;42.658;27.568;2023-02-28T15:04:58;101182.66;;;11.80;63.82
77250;BME280;66287;42.658;27.568;2023-02-28T15:07:24;101178.47;;;11.77;63.45
77250;BME280;66287;42.658;27.568;2023-02-28T15:10:09;101179.31;;;11.78;63.27
77250;BME280;66287;42.658;27.568;2023-02-28T15:12:35;101179.31;;;11.78;63.35
77250;BME280;66287;42.658;27.568;2023-02-28T15:15:02;101181.00;;;11.79;63.21
77250;BME280;66287;42.658;27.568;2023-02-28T15:17:27;101178.06;;;11.80;62.83
77250;BME280;66287;42.658;27.568;2023-02-28T15:19:53;101176.22;;;11.81;62.45
77250;BME280;66287;42.658;27.568;2023-02-28T15:22:22;101172.66;;;11.80;62.59
77250;BME280;66287;42.658;27.568;2023-02-28T15:24:54;101165.94;;;11.76;62.45
77250;BME280;66287;42.658;27.568;2023-02-28T15:29:50;101180.09;;;11.63;62.32
77250;BME280;66287;42.658;27.568;2023-02-28T15:32:24;101183.00;;;11.62;62.56